createdAt,value
2022-08-27T00:00:28.632Z,44.84
2022-08-27T00:01:00.978Z,44.98
2022-08-27T00:01:33.586Z,44.81
2022-08-27T00:02:09.437Z,45.11
2022-08-27T00:02:42.282Z,44.87
2022-08-27T00:03:14.735Z,45.12
2022-08-27T00:03:50.218Z,44.91
2022-08-27T00:04:22.680Z,45.23
2022-08-27T00:04:54.988Z,45.23
2022-08-27T00:05:29.885Z,44.79
2022-08-27T00:06:05.205Z,44.71
2022-08-27T00:06:39.202Z,44.97
2022-08-27T00:07:14.753Z,44.84
2022-08-27T00:07:47.923Z,44.85
2022-08-27T00:08:20.226Z,44.93
2022-08-27T00:08:56.876Z,44.73
2022-08-27T00:09:30.037Z,44.65
2022-08-27T00:10:02.432Z,44.83
2022-08-27T00:10:37.356Z,45.06
2022-08-27T00:11:09.818Z,45.14
2022-08-27T00:11:42.126Z,44.92
2022-08-27T00:12:17.159Z,45.16
2022-08-27T00:12:49.474Z,44.95
2022-08-27T00:13:21.762Z,44.69
2022-08-27T00:13:57.075Z,44.85
2022-08-27T00:14:29.415Z,44.91
2022-08-27T00:15:01.894Z,44.86
2022-08-27T00:15:36.977Z,44.84
2022-08-27T00:16:11.351Z,45.08
2022-08-27T00:16:43.790Z,44.70
2022-08-27T00:17:18.815Z,44.87
2022-08-27T00:17:51.272Z,44.84
2022-08-27T00:18:23.598Z,44.95
2022-08-27T00:18:58.737Z,44.50
2022-08-27T00:19:31.253Z,45.04
2022-08-27T00:20:06.334Z,44.90
2022-08-27T00:20:41.271Z,44.89
2022-08-27T00:21:16.744Z,44.63
2022-08-27T00:21:49.081Z,44.96
2022-08-27T00:22:24.002Z,44.75
2022-08-27T00:22:56.534Z,44.93
2022-08-27T00:23:29.980Z,44.63
2022-08-27T00:24:05.298Z,44.89
2022-08-27T00:24:42.054Z,44.63
2022-08-27T00:25:26.150Z,44.87
2022-08-27T00:25:58.669Z,44.84
2022-08-27T00:26:31.173Z,44.84
2022-08-27T00:27:06.350Z,44.86
2022-08-27T00:27:39.929Z,44.73
2022-08-27T00:28:12.316Z,44.91
2022-08-27T00:28:47.941Z,44.89
2022-08-27T00:29:20.614Z,44.82
2022-08-27T00:29:52.928Z,44.85
2022-08-27T00:30:27.830Z,44.82
2022-08-27T00:31:00.214Z,44.59
2022-08-27T00:31:33.748Z,44.80
2022-08-27T00:32:09.205Z,44.88
2022-08-27T00:32:42.517Z,44.99
2022-08-27T00:33:14.809Z,44.65
2022-08-27T00:33:49.726Z,44.78
2022-08-27T00:34:23.005Z,44.82
2022-08-27T00:34:55.333Z,45.14
2022-08-27T00:35:30.309Z,44.69
2022-08-27T00:36:03.426Z,44.74
2022-08-27T00:36:38.361Z,44.77
2022-08-27T00:37:13.581Z,44.49
2022-08-27T00:37:46.126Z,44.77
2022-08-27T00:38:19.854Z,44.53
2022-08-27T00:38:54.994Z,44.84
2022-08-27T00:39:27.740Z,44.77
2022-08-27T00:40:00.187Z,44.81
2022-08-27T00:40:36.015Z,44.89
2022-08-27T00:41:10.737Z,44.50
2022-08-27T00:41:44.874Z,44.99
2022-08-27T00:42:19.828Z,44.79
2022-08-27T00:42:52.210Z,44.49
2022-08-27T00:43:25.890Z,44.65
2022-08-27T00:44:03.210Z,44.88
2022-08-27T00:44:35.598Z,44.92
2022-08-27T00:45:09.141Z,44.90
2022-08-27T00:45:46.928Z,44.89
2022-08-27T00:46:24.053Z,44.85
2022-08-27T00:47:01.191Z,44.84
2022-08-27T00:47:37.001Z,44.96
2022-08-27T00:48:11.716Z,44.87
2022-08-27T00:48:46.847Z,44.99
2022-08-27T00:49:24.773Z,44.96
2022-08-27T00:50:01.272Z,44.77
2022-08-27T00:50:39.753Z,45.12
2022-08-27T00:51:12.127Z,44.92
2022-08-27T00:51:51.228Z,44.92
2022-08-27T00:52:29.709Z,44.82
2022-08-27T00:53:04.802Z,44.95
2022-08-27T00:53:37.100Z,44.99
2022-08-27T00:54:17.345Z,44.65
2022-08-27T00:54:53.062Z,45.09
2022-08-27T00:55:28.698Z,45.16
2022-08-27T00:56:06.641Z,44.96
2022-08-27T00:56:48.721Z,45.01
2022-08-27T00:57:26.847Z,45.03
2022-08-27T00:58:03.831Z,45.07
2022-08-27T00:58:42.950Z,45.25
2022-08-27T00:59:16.965Z,44.99
2022-08-27T00:59:51.918Z,44.98
2022-08-27T01:00:24.443Z,45.00
2022-08-27T01:00:58.185Z,45.13
2022-08-27T01:01:55.853Z,44.92
2022-08-27T01:02:30.862Z,45.03
2022-08-27T01:03:03.890Z,45.13
2022-08-27T01:03:38.961Z,45.35
2022-08-27T01:04:11.307Z,45.47
2022-08-27T01:04:45.447Z,45.07
2022-08-27T01:05:23.184Z,45.18
2022-08-27T01:05:57.531Z,45.41
2022-08-27T01:06:38.265Z,44.79
2022-08-27T01:07:14.592Z,45.46
2022-08-27T01:07:49.803Z,44.95
2022-08-27T01:08:26.953Z,45.27
2022-08-27T01:09:02.667Z,44.97
2022-08-27T01:09:35.074Z,45.18
2022-08-27T01:10:14.064Z,45.09
2022-08-27T01:10:47.094Z,45.08
2022-08-27T01:11:19.949Z,45.06
2022-08-27T01:11:55.127Z,45.16
2022-08-27T01:12:28.682Z,45.18
2022-08-27T01:13:01.073Z,45.31
2022-08-27T01:13:58.687Z,45.10
2022-08-27T01:14:29.837Z,45.13
2022-08-27T01:15:07.658Z,44.85
2022-08-27T01:15:42.628Z,45.13
2022-08-27T01:16:19.381Z,45.18
2022-08-27T01:16:57.195Z,45.39
2022-08-27T01:17:29.795Z,45.01
2022-08-27T01:18:03.782Z,45.12
2022-08-27T01:18:39.997Z,45.19
2022-08-27T01:19:26.504Z,45.26
2022-08-27T01:20:00.549Z,45.14
2022-08-27T01:20:43.928Z,45.32
2022-08-27T01:21:23.066Z,45.23
2022-08-27T01:22:00.544Z,45.01
2022-08-27T01:22:43.753Z,45.13
2022-08-27T01:23:23.142Z,45.37
2022-08-27T01:24:01.891Z,45.19
2022-08-27T01:24:39.458Z,45.04
2022-08-27T01:25:17.313Z,45.22
2022-08-27T01:25:50.185Z,45.12
2022-08-27T01:26:23.097Z,45.19
2022-08-27T01:26:56.129Z,45.16
2022-08-27T01:27:33.637Z,45.50
2022-08-27T01:28:06.090Z,44.90
2022-08-27T01:28:38.546Z,44.91
2022-08-27T01:29:16.031Z,45.30
2022-08-27T01:29:48.754Z,45.26
2022-08-27T01:30:21.813Z,45.14
2022-08-27T01:30:56.942Z,45.33
2022-08-27T01:31:29.994Z,45.04
2022-08-27T01:32:08.626Z,45.13
2022-08-27T01:32:41.112Z,45.30
2022-08-27T01:33:18.774Z,45.27
2022-08-27T01:33:55.634Z,45.34
2022-08-27T01:34:27.905Z,45.21
2022-08-27T01:35:03.781Z,45.54
2022-08-27T01:35:36.207Z,45.25
2022-08-27T01:36:12.791Z,45.13
2022-08-27T01:36:45.124Z,45.13
2022-08-27T01:37:24.037Z,45.16
2022-08-27T01:37:57.325Z,45.19
2022-08-27T01:38:30.414Z,45.30
2022-08-27T01:39:07.141Z,45.13
2022-08-27T01:39:43.386Z,45.22
2022-08-27T01:40:21.288Z,45.16
2022-08-27T01:40:53.860Z,44.99
2022-08-27T01:41:26.585Z,45.07
2022-08-27T01:42:06.602Z,45.15
2022-08-27T01:42:41.287Z,45.20
2022-08-27T01:43:13.916Z,45.24
2022-08-27T01:43:48.863Z,45.24
2022-08-27T01:44:21.221Z,44.88
2022-08-27T01:44:55.105Z,45.25
2022-08-27T01:45:32.498Z,45.23
2022-08-27T01:46:04.974Z,45.43
2022-08-27T01:46:37.330Z,45.13
2022-08-27T01:47:09.671Z,45.36
2022-08-27T01:47:44.901Z,44.87
2022-08-27T01:48:19.449Z,45.33
2022-08-27T01:48:51.798Z,45.24
2022-08-27T01:49:24.126Z,45.35
2022-08-27T01:49:59.138Z,45.18
2022-08-27T01:50:36.060Z,45.54
2022-08-27T01:51:11.118Z,45.41
2022-08-27T01:51:43.805Z,45.01
2022-08-27T01:52:18.184Z,45.02
2022-08-27T01:52:53.257Z,45.01
2022-08-27T01:53:26.654Z,45.12
2022-08-27T01:53:59.084Z,45.09
2022-08-27T01:54:34.113Z,45.23
2022-08-27T01:55:12.987Z,44.84
2022-08-27T01:55:49.764Z,45.14
2022-08-27T01:56:22.106Z,45.19
2022-08-27T01:56:54.440Z,45.37
2022-08-27T01:57:29.530Z,45.13
2022-08-27T01:58:01.956Z,44.96
2022-08-27T01:58:34.304Z,45.15
2022-08-27T01:59:09.208Z,45.08
2022-08-27T01:59:41.822Z,45.13
2022-08-27T02:00:16.901Z,45.05
2022-08-27T02:00:56.535Z,44.95
2022-08-27T02:01:29.123Z,45.13
2022-08-27T02:02:02.893Z,45.02
2022-08-27T02:02:38.011Z,45.28
2022-08-27T02:03:11.326Z,45.16
2022-08-27T02:03:44.718Z,45.01
2022-08-27T02:04:19.660Z,45.14
2022-08-27T02:04:52.270Z,45.04
2022-08-27T02:05:27.453Z,44.83
2022-08-27T02:06:00.842Z,44.96
2022-08-27T02:06:33.742Z,45.14
2022-08-27T02:07:08.767Z,45.28
2022-08-27T02:07:41.717Z,45.39
2022-08-27T02:08:16.010Z,45.19
2022-08-27T02:08:50.943Z,45.04
2022-08-27T02:09:23.649Z,45.25
2022-08-27T02:09:55.983Z,44.94
2022-08-27T02:10:35.671Z,45.35
2022-08-27T02:11:08.573Z,45.28
2022-08-27T02:11:44.843Z,45.30
2022-08-27T02:12:20.023Z,45.24
2022-08-27T02:12:53.121Z,44.99
2022-08-27T02:13:25.922Z,45.63
2022-08-27T02:14:00.865Z,45.28
2022-08-27T02:14:33.168Z,45.31
2022-08-27T02:15:07.303Z,45.18
2022-08-27T02:15:43.629Z,45.45
2022-08-27T02:16:16.452Z,45.42
2022-08-27T02:16:52.717Z,45.49
2022-08-27T02:17:27.837Z,45.45
2022-08-27T02:18:00.330Z,45.30
2022-08-27T02:18:32.650Z,45.37
2022-08-27T02:19:07.820Z,45.13
2022-08-27T02:19:42.409Z,45.51
2022-08-27T02:20:15.475Z,45.26
2022-08-27T02:20:51.689Z,45.55
2022-08-27T02:21:24.026Z,45.57
2022-08-27T02:22:00.350Z,45.51
2022-08-27T02:22:35.325Z,45.23
2022-08-27T02:23:07.754Z,45.45
2022-08-27T02:23:40.343Z,45.41
2022-08-27T02:24:15.370Z,45.40
2022-08-27T02:24:48.440Z,45.25
2022-08-27T02:25:21.685Z,45.40
2022-08-27T02:25:59.276Z,45.25
2022-08-27T02:26:31.749Z,45.33
2022-08-27T02:27:04.197Z,45.45
2022-08-27T02:27:39.667Z,45.46
2022-08-27T02:28:12.514Z,45.43
2022-08-27T02:28:47.522Z,45.25
2022-08-27T02:29:20.394Z,45.21
2022-08-27T02:29:53.070Z,45.35
2022-08-27T02:30:28.039Z,45.23
2022-08-27T02:31:00.936Z,45.48
2022-08-27T02:31:33.625Z,45.73
2022-08-27T02:32:23.841Z,45.39
2022-08-27T02:33:01.516Z,45.51
2022-08-27T02:33:34.168Z,45.59
2022-08-27T02:34:09.883Z,45.52
2022-08-27T02:34:42.150Z,45.28
2022-08-27T02:35:14.666Z,45.45
2022-08-27T02:35:50.128Z,45.59
2022-08-27T02:36:22.542Z,45.76
2022-08-27T02:36:55.187Z,45.53
2022-08-27T02:37:30.450Z,45.52
2022-08-27T02:38:03.481Z,45.36
2022-08-27T02:38:35.903Z,45.54
2022-08-27T02:39:11.129Z,45.16
2022-08-27T02:39:46.100Z,45.57
2022-08-27T02:40:20.990Z,45.18
2022-08-27T02:40:58.650Z,45.49
2022-08-27T02:41:31.500Z,45.92
2022-08-27T02:42:04.794Z,45.71
2022-08-27T02:42:40.299Z,45.55
2022-08-27T02:43:15.825Z,45.35
2022-08-27T02:43:48.929Z,45.37
2022-08-27T02:44:25.090Z,45.60
2022-08-27T02:44:57.389Z,45.65
2022-08-27T02:45:29.803Z,45.42
2022-08-27T02:46:05.078Z,45.71
2022-08-27T02:46:37.686Z,45.66
2022-08-27T02:47:10.487Z,45.83
2022-08-27T02:47:45.907Z,45.64
2022-08-27T02:48:18.497Z,45.66
2022-08-27T02:48:50.841Z,45.71
2022-08-27T02:49:25.706Z,45.66
2022-08-27T02:49:58.225Z,46.00
2022-08-27T02:50:30.703Z,45.74
2022-08-27T02:51:06.174Z,45.53
2022-08-27T02:51:39.097Z,45.72
2022-08-27T02:52:11.653Z,45.76
2022-08-27T02:52:48.161Z,45.36
2022-08-27T02:53:21.642Z,45.35
2022-08-27T02:53:56.365Z,45.57
2022-08-27T02:54:31.337Z,45.88
2022-08-27T02:55:04.193Z,45.81
2022-08-27T02:55:37.997Z,46.05
2022-08-27T02:56:21.879Z,45.92
2022-08-27T02:56:54.882Z,45.90
2022-08-27T02:57:27.278Z,46.11
2022-08-27T02:58:02.599Z,45.90
2022-08-27T02:58:34.965Z,46.13
2022-08-27T02:59:07.282Z,46.07
2022-08-27T02:59:39.625Z,45.81
2022-08-27T03:00:21.048Z,45.57
2022-08-27T03:00:53.677Z,46.14
2022-08-27T03:01:37.605Z,46.03
2022-08-27T03:02:10.847Z,46.17
2022-08-27T03:02:43.404Z,45.59
2022-08-27T03:03:19.959Z,45.79
2022-08-27T03:03:52.650Z,45.92
2022-08-27T03:04:31.553Z,45.85
2022-08-27T03:05:06.745Z,45.73
2022-08-27T03:05:40.788Z,45.83
2022-08-27T03:06:16.030Z,45.78
2022-08-27T03:06:48.753Z,46.12
2022-08-27T03:07:24.546Z,45.59
2022-08-27T03:08:00.111Z,45.74
2022-08-27T03:08:32.548Z,45.88
2022-08-27T03:09:27.325Z,46.07
2022-08-27T03:09:59.657Z,45.86
2022-08-27T03:10:32.737Z,45.99
2022-08-27T03:11:08.261Z,45.80
2022-08-27T03:11:43.983Z,45.86
2022-08-27T03:12:16.369Z,45.84
2022-08-27T03:12:51.800Z,46.12
2022-08-27T03:13:25.994Z,45.89
2022-08-27T03:13:59.132Z,45.85
2022-08-27T03:14:34.167Z,45.44
2022-08-27T03:15:09.393Z,45.86
2022-08-27T03:15:41.780Z,45.45
2022-08-27T03:16:20.465Z,45.78
2022-08-27T03:16:53.699Z,45.80
2022-08-27T03:17:41.069Z,45.61
2022-08-27T03:18:19.993Z,45.54
2022-08-27T03:18:52.923Z,45.93
2022-08-27T03:19:25.631Z,45.65
2022-08-27T03:20:01.722Z,45.46
2022-08-27T03:20:34.534Z,45.74
2022-08-27T03:21:10.949Z,45.46
2022-08-27T03:21:43.467Z,45.52
2022-08-27T03:22:27.126Z,45.77
2022-08-27T03:23:02.392Z,45.81
2022-08-27T03:23:36.112Z,45.69
2022-08-27T03:24:09.503Z,45.74
2022-08-27T03:24:44.058Z,45.85
2022-08-27T03:25:19.049Z,45.72
2022-08-27T03:25:53.793Z,45.64
2022-08-27T03:26:26.106Z,45.83
2022-08-27T03:27:03.614Z,45.70
2022-08-27T03:27:36.289Z,45.56
2022-08-27T03:28:11.621Z,45.58
2022-08-27T03:28:58.261Z,45.89
2022-08-27T03:29:30.561Z,45.44
2022-08-27T03:30:11.242Z,45.85
2022-08-27T03:30:46.134Z,45.35
2022-08-27T03:31:27.170Z,45.93
2022-08-27T03:32:02.281Z,45.49
2022-08-27T03:32:35.664Z,45.74
2022-08-27T03:33:08.474Z,45.93
2022-08-27T03:33:43.619Z,45.90
2022-08-27T03:34:19.740Z,45.80
2022-08-27T03:34:52.350Z,45.90
2022-08-27T03:35:24.934Z,45.65
2022-08-27T03:35:59.925Z,45.88
2022-08-27T03:36:34.875Z,45.54
2022-08-27T03:37:07.194Z,45.66
2022-08-27T03:37:39.649Z,45.83
2022-08-27T03:38:12.185Z,45.59
2022-08-27T03:38:48.693Z,45.93
2022-08-27T03:39:21.001Z,45.45
2022-08-27T03:39:53.752Z,45.61
2022-08-27T03:40:31.692Z,45.60
2022-08-27T03:41:06.781Z,45.47
2022-08-27T03:41:54.569Z,45.35
2022-08-27T03:42:30.441Z,45.61
2022-08-27T03:43:02.782Z,45.67
2022-08-27T03:43:37.726Z,45.40
2022-08-27T03:44:10.039Z,45.59
2022-08-27T03:44:49.129Z,45.52
2022-08-27T03:45:24.277Z,45.79
2022-08-27T03:46:00.770Z,45.76
2022-08-27T03:46:37.060Z,45.73
2022-08-27T03:47:09.411Z,45.58
2022-08-27T03:47:41.813Z,45.70
2022-08-27T03:48:18.897Z,45.86
2022-08-27T03:48:52.223Z,45.75
2022-08-27T03:49:29.685Z,45.71
2022-08-27T03:50:08.563Z,45.57
2022-08-27T03:50:43.627Z,45.57
2022-08-27T03:51:19.134Z,45.41
2022-08-27T03:51:52.294Z,45.43
2022-08-27T03:52:24.570Z,45.18
2022-08-27T03:52:59.615Z,45.46
2022-08-27T03:53:35.933Z,45.18
2022-08-27T03:54:08.245Z,45.48
2022-08-27T03:54:41.370Z,45.43
2022-08-27T03:55:20.840Z,45.35
2022-08-27T03:55:53.282Z,45.14
2022-08-27T03:56:28.373Z,45.37
2022-08-27T03:57:05.821Z,45.35
2022-08-27T03:57:41.223Z,45.49
2022-08-27T03:58:18.265Z,45.22
2022-08-27T03:58:51.315Z,45.07
2022-08-27T03:59:25.857Z,45.37
2022-08-27T04:00:01.139Z,45.70
2022-08-27T04:00:33.814Z,45.46
2022-08-27T04:01:08.180Z,45.06
2022-08-27T04:01:48.709Z,45.06
2022-08-27T04:02:21.191Z,45.75
2022-08-27T04:02:56.961Z,45.37
2022-08-27T04:03:34.684Z,45.36
2022-08-27T04:04:07.270Z,45.04
2022-08-27T04:04:42.304Z,45.23
2022-08-27T04:05:21.474Z,45.01
2022-08-27T04:05:55.626Z,45.35
2022-08-27T04:06:30.617Z,45.42
2022-08-27T04:07:05.664Z,45.30
2022-08-27T04:07:39.453Z,45.36
2022-08-27T04:08:13.733Z,45.55
2022-08-27T04:08:49.270Z,45.35
2022-08-27T04:09:23.266Z,45.27
2022-08-27T04:09:57.612Z,45.16
2022-08-27T04:10:34.924Z,45.28
2022-08-27T04:11:07.843Z,45.36
2022-08-27T04:11:51.692Z,45.23
2022-08-27T04:12:27.082Z,45.40
2022-08-27T04:13:02.311Z,45.12
2022-08-27T04:13:38.057Z,45.23
2022-08-27T04:14:24.833Z,45.23
2022-08-27T04:14:58.956Z,44.99
2022-08-27T04:15:31.725Z,45.14
2022-08-27T04:16:08.712Z,45.31
2022-08-27T04:16:41.597Z,45.37
2022-08-27T04:17:13.945Z,45.37
2022-08-27T04:17:48.913Z,45.08
2022-08-27T04:18:21.269Z,45.24
2022-08-27T04:18:56.423Z,45.52
2022-08-27T04:19:33.733Z,45.45
2022-08-27T04:20:33.966Z,45.18
2022-08-27T04:21:11.684Z,45.37
2022-08-27T04:21:48.510Z,45.13
2022-08-27T04:22:25.253Z,45.11
2022-08-27T04:22:58.201Z,45.44
2022-08-27T04:23:33.131Z,45.47
2022-08-27T04:24:12.803Z,45.52
2022-08-27T04:24:47.105Z,45.65
2022-08-27T04:25:29.489Z,45.39
2022-08-27T04:26:07.479Z,45.31
2022-08-27T04:26:40.470Z,45.39
2022-08-27T04:27:16.334Z,45.37
2022-08-27T04:27:49.040Z,45.35
2022-08-27T04:28:26.082Z,45.38
2022-08-27T04:29:01.466Z,45.54
2022-08-27T04:29:36.815Z,45.16
2022-08-27T04:30:15.718Z,45.06
2022-08-27T04:30:50.692Z,45.40
2022-08-27T04:31:26.219Z,45.36
2022-08-27T04:31:59.211Z,45.28
2022-08-27T04:32:34.402Z,45.10
2022-08-27T04:33:06.746Z,45.33
2022-08-27T04:33:42.166Z,45.40
2022-08-27T04:34:25.465Z,45.41
2022-08-27T04:34:58.913Z,45.59
2022-08-27T04:35:31.234Z,45.37
2022-08-27T04:36:10.143Z,45.42
2022-08-27T04:36:42.450Z,45.42
2022-08-27T04:37:14.757Z,45.30
2022-08-27T04:37:56.333Z,45.33
2022-08-27T04:38:28.880Z,45.32
2022-08-27T04:39:01.357Z,45.37
2022-08-27T04:39:36.609Z,45.38
2022-08-27T04:40:10.580Z,45.37
2022-08-27T04:40:57.923Z,45.06
2022-08-27T04:41:33.551Z,45.37
2022-08-27T04:42:08.922Z,45.01
2022-08-27T04:42:41.286Z,45.26
2022-08-27T04:43:14.810Z,45.63
2022-08-27T04:43:56.629Z,45.32
2022-08-27T04:44:31.636Z,44.99
2022-08-27T04:45:07.625Z,45.39
2022-08-27T04:45:44.446Z,45.23
2022-08-27T04:46:20.879Z,45.30
2022-08-27T04:46:58.632Z,45.25
2022-08-27T04:47:31.275Z,45.32
2022-08-27T04:48:04.158Z,45.39
2022-08-27T04:48:39.110Z,45.31
2022-08-27T04:49:13.625Z,45.34
2022-08-27T04:49:47.748Z,45.01
2022-08-27T04:50:22.620Z,45.55
2022-08-27T04:51:02.431Z,45.16
2022-08-27T04:51:36.673Z,45.10
2022-08-27T04:52:13.535Z,45.35
2022-08-27T04:52:45.798Z,45.39
2022-08-27T04:53:20.322Z,45.46
2022-08-27T04:53:56.964Z,45.33
2022-08-27T04:54:33.406Z,45.40
2022-08-27T04:55:10.052Z,45.37
2022-08-27T04:55:43.077Z,45.35
2022-08-27T04:56:17.386Z,45.47
2022-08-27T04:56:52.590Z,45.23
2022-08-27T04:57:24.898Z,45.36
2022-08-27T04:57:58.238Z,45.60
2022-08-27T04:58:33.158Z,45.27
2022-08-27T04:59:10.310Z,45.08
2022-08-27T04:59:45.686Z,45.40
2022-08-27T05:00:18.249Z,45.43
2022-08-27T05:00:52.643Z,45.40
2022-08-27T05:01:29.895Z,45.44
2022-08-27T05:02:03.580Z,45.38
2022-08-27T05:02:37.246Z,45.47
2022-08-27T05:03:09.756Z,45.42
2022-08-27T05:03:44.673Z,45.54
2022-08-27T05:04:18.933Z,45.45
2022-08-27T05:04:53.897Z,45.50
2022-08-27T05:05:27.906Z,45.45
2022-08-27T05:06:02.513Z,45.52
2022-08-27T05:06:38.312Z,45.65
2022-08-27T05:07:11.004Z,45.27
2022-08-27T05:07:43.538Z,45.23
2022-08-27T05:08:18.503Z,45.27
2022-08-27T05:08:51.778Z,45.69
2022-08-27T05:09:26.956Z,45.61
2022-08-27T05:09:59.322Z,45.45
2022-08-27T05:10:31.616Z,45.54
2022-08-27T05:11:09.415Z,45.43
2022-08-27T05:11:42.038Z,45.42
2022-08-27T05:12:17.154Z,45.45
2022-08-27T05:12:50.088Z,45.55
2022-08-27T05:13:24.497Z,45.66
2022-08-27T05:13:56.955Z,45.54
2022-08-27T05:14:34.516Z,45.45
2022-08-27T05:15:07.988Z,45.58
2022-08-27T05:15:40.997Z,45.44
2022-08-27T05:16:14.896Z,45.54
2022-08-27T05:16:49.895Z,45.52
2022-08-27T05:17:22.260Z,45.62
2022-08-27T05:17:54.592Z,45.87
2022-08-27T05:18:29.625Z,45.64
2022-08-27T05:19:02.014Z,45.57
2022-08-27T05:19:36.946Z,45.49
2022-08-27T05:20:11.158Z,45.50
2022-08-27T05:20:45.841Z,45.57
2022-08-27T05:21:23.562Z,45.21
2022-08-27T05:21:55.966Z,45.45
2022-08-27T05:22:28.870Z,45.52
2022-08-27T05:23:04.078Z,45.42
2022-08-27T05:23:36.707Z,45.21
2022-08-27T05:24:10.927Z,45.40
2022-08-27T05:24:50.197Z,45.47
2022-08-27T05:25:23.109Z,45.53
2022-08-27T05:25:55.689Z,45.61
2022-08-27T05:26:31.945Z,45.40
2022-08-27T05:27:04.717Z,45.65
2022-08-27T05:27:36.989Z,45.59
2022-08-27T05:28:12.265Z,45.54
2022-08-27T05:28:44.866Z,45.26
2022-08-27T05:29:18.149Z,45.70
2022-08-27T05:29:55.673Z,45.64
2022-08-27T05:30:28.031Z,45.34
2022-08-27T05:31:05.088Z,45.64
2022-08-27T05:31:40.179Z,45.45
2022-08-27T05:32:12.567Z,45.69
2022-08-27T05:32:45.011Z,45.80
2022-08-27T05:33:19.285Z,45.29
2022-08-27T05:33:56.405Z,45.49
2022-08-27T05:34:30.944Z,45.45
2022-08-27T05:35:07.177Z,45.40
2022-08-27T05:35:41.509Z,45.55
2022-08-27T05:36:22.032Z,45.61
2022-08-27T05:36:57.049Z,45.64
2022-08-27T05:37:29.366Z,45.31
2022-08-27T05:38:01.698Z,45.65
2022-08-27T05:38:34.396Z,45.95
2022-08-27T05:39:10.295Z,45.63
2022-08-27T05:39:42.625Z,45.53
2022-08-27T05:40:14.977Z,45.38
2022-08-27T05:40:51.606Z,45.92
2022-08-27T05:41:27.502Z,45.53
2022-08-27T05:42:09.710Z,45.57
2022-08-27T05:42:43.280Z,45.78
2022-08-27T05:43:22.546Z,45.53
2022-08-27T05:43:59.212Z,45.88
2022-08-27T05:44:41.553Z,45.85
2022-08-27T05:45:19.701Z,45.70
2022-08-27T05:45:52.021Z,45.67
2022-08-27T05:46:25.421Z,46.09
2022-08-27T05:47:01.461Z,45.77
2022-08-27T05:47:33.738Z,45.81
2022-08-27T05:48:12.060Z,46.00
2022-08-27T05:48:47.279Z,45.98
2022-08-27T05:49:19.600Z,45.83
2022-08-27T05:49:52.305Z,45.74
2022-08-27T05:50:27.986Z,45.57
2022-08-27T05:51:08.293Z,46.12
2022-08-27T05:51:41.543Z,45.62
2022-08-27T05:52:16.449Z,45.80
2022-08-27T05:52:48.753Z,45.90
2022-08-27T05:53:21.138Z,45.65
2022-08-27T05:53:58.453Z,45.97
2022-08-27T05:54:30.774Z,45.50
2022-08-27T05:55:03.284Z,46.05
2022-08-27T05:55:41.366Z,45.84
2022-08-27T05:56:14.186Z,45.83
2022-08-27T05:56:46.864Z,45.64
2022-08-27T05:57:21.749Z,45.77
2022-08-27T05:57:54.207Z,45.83
2022-08-27T05:58:41.585Z,45.53
2022-08-27T05:59:28.867Z,45.81
2022-08-27T06:00:21.730Z,45.54
2022-08-27T06:01:10.159Z,45.85
2022-08-27T06:01:46.850Z,45.85
2022-08-27T06:02:20.618Z,45.74
2022-08-27T06:02:55.667Z,45.96
2022-08-27T06:03:27.973Z,45.76
2022-08-27T06:04:00.406Z,45.67
2022-08-27T06:04:35.526Z,45.57
2022-08-27T06:05:08.408Z,46.05
2022-08-27T06:05:41.054Z,46.12
2022-08-27T06:06:15.989Z,46.22
2022-08-27T06:06:49.490Z,46.09
2022-08-27T06:07:21.802Z,46.06
2022-08-27T06:07:56.746Z,45.59
2022-08-27T06:08:29.378Z,45.85
2022-08-27T06:09:01.698Z,45.82
2022-08-27T06:09:36.586Z,46.14
2022-08-27T06:10:10.324Z,45.72
2022-08-27T06:10:42.864Z,46.02
2022-08-27T06:11:18.246Z,45.85
2022-08-27T06:11:50.633Z,45.99
2022-08-27T06:12:27.076Z,46.31
2022-08-27T06:13:00.750Z,46.17
2022-08-27T06:13:34.113Z,46.00
2022-08-27T06:14:09.772Z,46.12
2022-08-27T06:14:42.377Z,45.71
2022-08-27T06:15:14.712Z,46.09
2022-08-27T06:15:47.046Z,46.24
2022-08-27T06:16:25.469Z,46.41
2022-08-27T06:17:00.417Z,46.08
2022-08-27T06:17:35.347Z,46.00
2022-08-27T06:18:07.676Z,46.01
2022-08-27T06:18:40.825Z,46.21
2022-08-27T06:19:16.015Z,46.13
2022-08-27T06:19:48.301Z,45.99
2022-08-27T06:20:20.972Z,46.07
2022-08-27T06:20:55.955Z,45.80
2022-08-27T06:21:28.275Z,46.08
2022-08-27T06:22:10.496Z,46.05
2022-08-27T06:22:45.937Z,46.38
2022-08-27T06:23:18.258Z,46.38
2022-08-27T06:24:00.735Z,46.02
2022-08-27T06:24:36.167Z,46.36
2022-08-27T06:25:09.466Z,46.27
2022-08-27T06:25:42.285Z,46.07
2022-08-27T06:26:19.268Z,46.17
2022-08-27T06:26:51.642Z,46.36
2022-08-27T06:27:26.506Z,46.23
2022-08-27T06:27:59.113Z,46.08
2022-08-27T06:28:31.687Z,46.12
2022-08-27T06:29:08.061Z,46.14
2022-08-27T06:29:40.873Z,46.07
2022-08-27T06:30:17.395Z,45.85
2022-08-27T06:30:52.697Z,46.25
2022-08-27T06:31:28.029Z,46.05
2022-08-27T06:32:00.426Z,45.94
2022-08-27T06:32:35.356Z,46.19
2022-08-27T06:33:07.690Z,45.37
2022-08-27T06:33:40.954Z,46.12
2022-08-27T06:34:15.854Z,46.02
2022-08-27T06:34:48.783Z,46.05
2022-08-27T06:35:21.153Z,45.67
2022-08-27T06:35:56.106Z,45.82
2022-08-27T06:36:29.656Z,46.21
2022-08-27T06:37:02.191Z,46.21
2022-08-27T06:37:37.106Z,46.09
2022-08-27T06:38:09.542Z,45.66
2022-08-27T06:38:43.201Z,45.86
2022-08-27T06:39:18.120Z,45.90
2022-08-27T06:39:51.715Z,46.30
2022-08-27T06:40:24.303Z,46.05
2022-08-27T06:40:59.297Z,46.12
2022-08-27T06:41:31.761Z,46.59
2022-08-27T06:42:06.849Z,46.20
2022-08-27T06:42:39.176Z,46.12
2022-08-27T06:43:12.213Z,46.18
2022-08-27T06:43:47.154Z,46.15
2022-08-27T06:44:19.864Z,46.21
2022-08-27T06:44:54.869Z,45.98
2022-08-27T06:45:27.397Z,46.07
2022-08-27T06:46:03.016Z,46.19
2022-08-27T06:46:41.336Z,46.37
2022-08-27T06:47:14.147Z,46.13
2022-08-27T06:47:46.511Z,46.21
2022-08-27T06:48:21.746Z,46.14
2022-08-27T06:48:54.858Z,46.21
2022-08-27T06:49:29.845Z,46.09
2022-08-27T06:50:02.325Z,46.09
2022-08-27T06:50:38.277Z,46.23
2022-08-27T06:51:14.698Z,46.20
2022-08-27T06:51:48.189Z,46.14
2022-08-27T06:52:20.503Z,45.64
2022-08-27T06:52:55.414Z,45.42
2022-08-27T06:53:27.824Z,45.40
2022-08-27T06:54:02.322Z,45.23
2022-08-27T06:54:39.885Z,45.23
2022-08-27T06:55:12.325Z,45.11
2022-08-27T06:55:45.850Z,44.95
2022-08-27T06:56:21.017Z,44.89
2022-08-27T06:56:53.346Z,44.73
2022-08-27T06:57:25.713Z,44.67
2022-08-27T06:58:00.765Z,44.65
2022-08-27T06:58:34.425Z,45.05
2022-08-27T06:59:12.290Z,44.41
2022-08-27T06:59:44.745Z,44.46
2022-08-27T07:00:19.811Z,44.87
2022-08-27T07:00:52.249Z,44.61
2022-08-27T07:01:27.270Z,44.56
2022-08-27T07:02:07.943Z,44.74
2022-08-27T07:02:40.286Z,44.56
2022-08-27T07:03:12.944Z,44.37
2022-08-27T07:03:49.346Z,44.53
2022-08-27T07:04:32.140Z,44.57
2022-08-27T07:05:06.433Z,44.36
2022-08-27T07:05:43.237Z,44.45
2022-08-27T07:06:16.733Z,44.40
2022-08-27T07:06:49.373Z,44.70
2022-08-27T07:07:30.122Z,44.34
2022-08-27T07:08:08.508Z,44.51
2022-08-27T07:08:43.950Z,44.38
2022-08-27T07:09:25.741Z,44.09
2022-08-27T07:09:59.411Z,44.24
2022-08-27T07:10:34.711Z,44.33
2022-08-27T07:11:08.505Z,44.11
2022-08-27T07:11:43.900Z,44.22
2022-08-27T07:12:16.187Z,44.36
2022-08-27T07:12:48.517Z,44.36
2022-08-27T07:13:23.517Z,44.38
2022-08-27T07:13:56.476Z,44.11
2022-08-27T07:14:30.188Z,44.05
2022-08-27T07:15:07.741Z,44.42
2022-08-27T07:15:40.148Z,44.16
2022-08-27T07:16:18.162Z,44.13
2022-08-27T07:16:52.231Z,44.24
2022-08-27T07:17:30.671Z,44.29
2022-08-27T07:18:02.977Z,44.05
2022-08-27T07:18:38.838Z,44.15
2022-08-27T07:19:15.902Z,44.43
2022-08-27T07:19:49.205Z,44.02
2022-08-27T07:20:25.327Z,44.17
2022-08-27T07:20:57.633Z,44.36
2022-08-27T07:21:30.784Z,44.15
2022-08-27T07:22:06.340Z,44.24
2022-08-27T07:22:39.888Z,44.13
2022-08-27T07:23:12.205Z,44.17
2022-08-27T07:23:47.117Z,43.98
2022-08-27T07:24:19.724Z,43.89
2022-08-27T07:24:53.685Z,43.88
2022-08-27T07:25:28.706Z,44.19
2022-08-27T07:26:01.519Z,44.01
2022-08-27T07:26:35.638Z,44.25
2022-08-27T07:27:11.318Z,44.14
2022-08-27T07:27:43.649Z,44.04
2022-08-27T07:28:16.218Z,44.07
2022-08-27T07:28:52.006Z,44.04
2022-08-27T07:29:24.566Z,44.12
2022-08-27T07:29:59.495Z,44.05
2022-08-27T07:30:34.115Z,44.10